createdAt,value
2019-05-09T00:00:40.611Z,93809.12
2019-05-09T00:03:47.940Z,93805.47
2019-05-09T00:06:55.266Z,93801.51
2019-05-09T00:10:04.026Z,93795.94
2019-05-09T00:13:13.674Z,93793.97
2019-05-09T00:16:23.525Z,93787.11
2019-05-09T00:19:33.382Z,93785.71
2019-05-09T00:22:40.793Z,93787.47
2019-05-09T00:25:48.361Z,93779.17
2019-05-09T00:29:03.638Z,93778.24
2019-05-09T00:32:31.172Z,93779.84
2019-05-09T00:35:39.705Z,93781.97
2019-05-09T00:38:47.273Z,93788.80
2019-05-09T00:41:54.884Z,93786.22
2019-05-09T00:45:04.292Z,93794.91
2019-05-09T00:48:14.147Z,93790.16
2019-05-09T00:51:23.269Z,93790.52
2019-05-09T00:54:33.355Z,93788.48
2019-05-09T00:57:40.097Z,93776.02
2019-05-09T01:00:47.812Z,93777.77
2019-05-09T01:03:55.525Z,93787.50
2019-05-09T01:07:03.577Z,93780.00
2019-05-09T01:10:13.393Z,93783.30
2019-05-09T01:13:23.106Z,93782.80
2019-05-09T01:16:30.054Z,93791.30
2019-05-09T01:19:37.521Z,93779.72
2019-05-09T01:22:45.175Z,93775.80
2019-05-09T01:25:53.021Z,93775.44
2019-05-09T01:29:01.491Z,93777.64
2019-05-09T01:32:16.861Z,93771.59
2019-05-09T01:35:24.438Z,93765.36
2019-05-09T01:38:33.742Z,93763.86
2019-05-09T01:41:40.967Z,93771.91
2019-05-09T01:44:48.679Z,93780.87
2019-05-09T01:47:55.992Z,93781.84
2019-05-09T01:51:03.549Z,93779.85
2019-05-09T01:54:13.246Z,93775.38
2019-05-09T01:57:23.123Z,93789.98
2019-05-09T02:00:30.273Z,93783.09
2019-05-09T02:03:37.942Z,93781.95
2019-05-09T02:06:46.071Z,93771.80
2019-05-09T02:09:54.091Z,93778.70
2019-05-09T02:13:03.116Z,93779.92
2019-05-09T02:16:33.822Z,93773.78
2019-05-09T02:19:43.949Z,93777.83
2019-05-09T02:22:53.868Z,93770.53
2019-05-09T02:26:00.726Z,93763.63
2019-05-09T02:29:08.244Z,93766.53
2019-05-09T02:32:15.458Z,93760.73
2019-05-09T02:35:22.872Z,93763.38
2019-05-09T02:38:30.190Z,93761.28
2019-05-09T02:41:39.054Z,93756.47
2019-05-09T02:44:49.229Z,93762.13
2019-05-09T02:47:59.034Z,93746.94
2019-05-09T02:51:08.805Z,93745.64
2019-05-09T02:54:18.829Z,93744.54
2019-05-09T02:57:29.089Z,93748.84
2019-05-09T03:00:52.441Z,93744.71
2019-05-09T03:03:59.796Z,93742.41
2019-05-09T03:07:09.739Z,93737.72
2019-05-09T03:10:19.152Z,93748.50
2019-05-09T03:13:29.104Z,93751.10
2019-05-09T03:16:39.456Z,93743.27
2019-05-09T03:19:48.762Z,93736.28
2019-05-09T03:22:54.769Z,93740.11
2019-05-09T03:26:02.888Z,93733.63
2019-05-09T03:29:19.086Z,93733.46
2019-05-09T03:32:29.734Z,93732.21
2019-05-09T03:35:37.868Z,93736.77
2019-05-09T03:38:47.600Z,93735.23
2019-05-09T03:41:57.275Z,93736.92
2019-05-09T03:45:08.169Z,93731.31
2019-05-09T03:48:21.412Z,93731.92
2019-05-09T03:51:28.725Z,93737.09
2019-05-09T03:54:37.553Z,93729.16
2019-05-09T03:58:00.972Z,93720.75
2019-05-09T04:01:10.894Z,93720.91
2019-05-09T04:04:19.589Z,93720.54
2019-05-09T04:07:27.999Z,93723.34
2019-05-09T04:10:38.525Z,93717.81
2019-05-09T04:13:52.298Z,93726.29
2019-05-09T04:16:59.981Z,93730.41
2019-05-09T04:20:08.207Z,93729.73
2019-05-09T04:23:18.442Z,93719.02
2019-05-09T04:26:43.965Z,93724.53
2019-05-09T04:29:51.180Z,93725.91
2019-05-09T04:32:58.513Z,93726.38
2019-05-09T04:36:08.180Z,93732.58
2019-05-09T04:39:20.968Z,93725.59
2019-05-09T04:42:24.622Z,93735.59
2019-05-09T04:45:41.641Z,93723.45
2019-05-09T04:48:47.588Z,93734.11
2019-05-09T04:51:55.407Z,93739.95
2019-05-09T04:55:03.359Z,93736.95
2019-05-09T04:58:10.716Z,93737.86
2019-05-09T05:01:38.972Z,93741.69
2019-05-09T05:04:47.892Z,93746.67
2019-05-09T05:07:57.313Z,93751.03
2019-05-09T05:11:04.590Z,93758.63
2019-05-09T05:14:20.288Z,93755.25
2019-05-09T05:17:30.594Z,93757.27
2019-05-09T05:20:37.965Z,93747.74
2019-05-09T05:24:03.789Z,93745.60
2019-05-09T05:27:11.148Z,93758.63
2019-05-09T05:30:18.585Z,93756.31
2019-05-09T05:33:32.876Z,93745.20
2019-05-09T05:36:41.099Z,93759.36
2019-05-09T05:39:48.570Z,93755.41
2019-05-09T05:42:58.436Z,93758.34
2019-05-09T05:46:23.812Z,93755.21
2019-05-09T05:49:31.499Z,93747.19
2019-05-09T05:52:39.052Z,93749.50
2019-05-09T05:55:49.404Z,93742.59
2019-05-09T05:58:58.069Z,93744.91
2019-05-09T06:02:08.558Z,93755.53
2019-05-09T06:05:15.782Z,93755.59
2019-05-09T06:08:23.790Z,93744.27
2019-05-09T06:11:31.024Z,93742.63
2019-05-09T06:14:38.679Z,93753.17
2019-05-09T06:17:48.225Z,93757.75
2019-05-09T06:20:55.543Z,93761.51
2019-05-09T06:24:03.054Z,93765.91
2019-05-09T06:27:10.711Z,93758.23
2019-05-09T06:30:28.138Z,93765.59
2019-05-09T06:33:35.929Z,93764.75
2019-05-09T06:36:43.216Z,93759.48
2019-05-09T06:39:50.417Z,93757.80
2019-05-09T06:42:59.398Z,93760.19
2019-05-09T06:46:18.251Z,93757.58
2019-05-09T06:49:31.988Z,93754.92
2019-05-09T06:52:39.368Z,93757.39
2019-05-09T06:55:47.589Z,93754.09
2019-05-09T06:58:54.958Z,93749.84
2019-05-09T07:02:10.674Z,93750.45
2019-05-09T07:05:29.958Z,93741.78
2019-05-09T07:08:59.808Z,93743.56
2019-05-09T07:12:07.943Z,93729.13
2019-05-09T07:15:17.753Z,93735.23
2019-05-09T07:18:27.482Z,93724.56
2019-05-09T07:21:52.891Z,93738.28
2019-05-09T07:25:10.763Z,93733.72
2019-05-09T07:28:17.996Z,93727.22
2019-05-09T07:31:32.811Z,93736.25
2019-05-09T07:34:47.322Z,93734.42
2019-05-09T07:37:54.741Z,93727.45
2019-05-09T07:41:02.402Z,93729.87
2019-05-09T07:44:14.679Z,93727.67
2019-05-09T07:47:30.454Z,93721.68
2019-05-09T07:50:38.882Z,93719.17
2019-05-09T07:53:48.225Z,93733.87
2019-05-09T07:56:58.041Z,93733.16
2019-05-09T08:00:07.778Z,93721.44
2019-05-09T08:03:17.594Z,93726.00
2019-05-09T08:06:25.028Z,93723.24
2019-05-09T08:09:32.444Z,93728.65
2019-05-09T08:12:40.011Z,93729.27
2019-05-09T08:15:47.813Z,93721.94
2019-05-09T08:18:57.851Z,93717.48
2019-05-09T08:22:07.775Z,93713.50
2019-05-09T08:25:14.911Z,93718.10
2019-05-09T08:28:22.448Z,93716.80
2019-05-09T08:31:30.092Z,93717.41
2019-05-09T08:34:37.977Z,93721.73
2019-05-09T08:37:47.572Z,93708.52
2019-05-09T08:41:13.841Z,93711.05
2019-05-09T08:44:21.684Z,93705.46
2019-05-09T08:47:28.989Z,93712.90
2019-05-09T08:50:58.284Z,93714.16
2019-05-09T08:54:06.578Z,93707.56
2019-05-09T08:57:14.204Z,93702.95
2019-05-09T09:00:22.202Z,93694.95
2019-05-09T09:03:29.615Z,93695.20
2019-05-09T09:06:37.986Z,93688.55
2019-05-09T09:09:48.270Z,93693.36
2019-05-09T09:12:58.123Z,93686.59
2019-05-09T09:16:15.789Z,93682.28
2019-05-09T09:19:14.894Z,93675.80
2019-05-09T09:22:22.433Z,93681.50
2019-05-09T09:25:30.228Z,93670.58
2019-05-09T09:28:38.115Z,93673.02
2019-05-09T09:31:48.254Z,93663.26
2019-05-09T09:34:55.436Z,93666.41
2019-05-09T09:38:03.304Z,93668.72
2019-05-09T09:41:10.928Z,93662.04
2019-05-09T09:44:21.988Z,93660.42
2019-05-09T09:47:28.686Z,93664.87
2019-05-09T09:50:38.324Z,93660.55
2019-05-09T09:53:48.685Z,93654.78
2019-05-09T09:56:58.288Z,93657.81
2019-05-09T10:00:21.993Z,93657.48
2019-05-09T10:03:30.406Z,93659.43
2019-05-09T10:06:38.915Z,93669.91
2019-05-09T10:09:48.010Z,93663.94
2019-05-09T10:12:55.688Z,93660.00
2019-05-09T10:16:29.175Z,93659.09
2019-05-09T10:19:51.834Z,93661.20
2019-05-09T10:23:10.123Z,93663.88
2019-05-09T10:26:08.822Z,93661.53
2019-05-09T10:29:17.750Z,93653.16
2019-05-09T10:32:25.393Z,93655.73
2019-05-09T10:35:32.911Z,93652.34
2019-05-09T10:38:40.188Z,93657.15
2019-05-09T10:41:48.272Z,93658.27
2019-05-09T10:45:10.090Z,93658.45
2019-05-09T10:48:23.623Z,93655.55
2019-05-09T10:51:26.679Z,93661.48
2019-05-09T10:54:34.242Z,93654.63
2019-05-09T10:57:42.795Z,93654.19
2019-05-09T11:00:51.738Z,93647.90
2019-05-09T11:03:59.377Z,93649.77
2019-05-09T11:07:08.049Z,93650.57
2019-05-09T11:10:25.922Z,93653.62
2019-05-09T11:13:25.002Z,93653.70
2019-05-09T11:16:45.489Z,93669.17
2019-05-09T11:19:41.901Z,93682.86
2019-05-09T11:22:49.691Z,93681.60
2019-05-09T11:25:58.058Z,93687.98
2019-05-09T11:29:07.808Z,93693.58
2019-05-09T11:32:14.975Z,93700.32
2019-05-09T11:35:23.880Z,93707.59
2019-05-09T11:38:37.785Z,93719.26
2019-05-09T11:41:41.138Z,93731.89
2019-05-09T11:44:48.436Z,93737.79
2019-05-09T11:47:58.236Z,93755.85
2019-05-09T11:51:05.167Z,93769.80
2019-05-09T11:54:12.367Z,93777.31
2019-05-09T11:57:19.751Z,93773.06
2019-05-09T12:00:29.470Z,93754.30
2019-05-09T12:03:38.899Z,93734.87
2019-05-09T12:06:46.105Z,93718.70
2019-05-09T12:09:53.660Z,93710.30
2019-05-09T12:13:01.067Z,93707.00
2019-05-09T12:16:08.919Z,93698.06
2019-05-09T12:19:17.993Z,93696.01
2019-05-09T12:22:27.939Z,93695.95
2019-05-09T12:25:34.798Z,93698.31
2019-05-09T12:28:42.478Z,93691.12
2019-05-09T12:31:49.839Z,93684.84
2019-05-09T12:34:57.827Z,93680.28
2019-05-09T12:38:05.499Z,93675.66
2019-05-09T12:41:13.332Z,93682.11
2019-05-09T12:44:24.618Z,93680.36
2019-05-09T12:47:30.484Z,93688.19
2019-05-09T12:50:38.764Z,93687.03
2019-05-09T12:53:48.431Z,93673.88
2019-05-09T12:56:58.998Z,93665.85
2019-05-09T13:00:07.280Z,93660.46
2019-05-09T13:03:14.814Z,93665.88
2019-05-09T13:06:22.406Z,93662.88
2019-05-09T13:09:29.886Z,93654.49
2019-05-09T13:12:38.874Z,93681.05
2019-05-09T13:15:54.566Z,93662.82
2019-05-09T13:19:04.894Z,93659.86
2019-05-09T13:22:13.363Z,93652.34
2019-05-09T13:25:21.056Z,93656.59
2019-05-09T13:28:28.337Z,93649.36
2019-05-09T13:31:39.215Z,93646.02
2019-05-09T13:34:45.107Z,93660.93
2019-05-09T13:37:52.380Z,93653.55
2019-05-09T13:40:59.906Z,93652.46
2019-05-09T13:44:13.227Z,93643.20
2019-05-09T13:47:17.904Z,93640.75
2019-05-09T13:50:25.448Z,93632.55
2019-05-09T13:53:33.102Z,93634.10
2019-05-09T13:56:40.384Z,93635.39
2019-05-09T13:59:48.753Z,93637.84
2019-05-09T14:02:56.206Z,93631.84
2019-05-09T14:06:04.194Z,93627.57
2019-05-09T14:09:11.923Z,93625.29
2019-05-09T14:12:19.436Z,93624.81
2019-05-09T14:15:27.545Z,93613.42
2019-05-09T14:18:34.965Z,93617.84
2019-05-09T14:21:43.072Z,93615.34
2019-05-09T14:24:50.358Z,93616.72
2019-05-09T14:27:57.923Z,93626.05
2019-05-09T14:31:07.514Z,93616.32
2019-05-09T14:34:14.289Z,93619.50
2019-05-09T14:37:22.172Z,93631.42
2019-05-09T14:40:30.081Z,93636.78
2019-05-09T14:43:39.444Z,93630.56
2019-05-09T14:46:48.137Z,93631.81
2019-05-09T14:49:59.355Z,93621.31
2019-05-09T14:53:08.322Z,93628.64
2019-05-09T14:56:14.886Z,93643.45
2019-05-09T14:59:22.734Z,93686.07
2019-05-09T15:02:29.909Z,93737.63
2019-05-09T15:05:37.950Z,93726.55
2019-05-09T15:08:45.514Z,93722.12
2019-05-09T15:11:53.138Z,93706.48
2019-05-09T15:15:00.830Z,93704.59
2019-05-09T15:18:08.349Z,93709.55
2019-05-09T15:21:16.648Z,93708.59
2019-05-09T15:24:25.121Z,93702.90
2019-05-09T15:27:32.554Z,93696.41
2019-05-09T15:30:41.344Z,93696.36
2019-05-09T15:33:50.434Z,93703.89
2019-05-09T15:36:59.289Z,93702.81
2019-05-09T15:40:08.874Z,93695.81
2019-05-09T15:43:18.589Z,93691.08
2019-05-09T15:46:40.010Z,93693.52
2019-05-09T15:49:49.406Z,93694.40
2019-05-09T15:52:58.019Z,93692.36
2019-05-09T15:56:07.886Z,93690.55
2019-05-09T15:59:17.934Z,93688.91
2019-05-09T16:02:28.050Z,93686.64
2019-05-09T16:05:35.415Z,93686.19
2019-05-09T16:08:42.888Z,93681.03
2019-05-09T16:11:50.716Z,93685.69
2019-05-09T16:14:59.510Z,93680.72
2019-05-09T16:18:08.604Z,93678.81
2019-05-09T16:21:18.035Z,93685.88
2019-05-09T16:24:28.051Z,93688.33
2019-05-09T16:27:38.183Z,93699.03
2019-05-09T16:30:48.210Z,93699.06
2019-05-09T16:34:28.070Z,93703.61
2019-05-09T16:38:41.038Z,93697.31
2019-05-09T16:41:59.206Z,93701.12
2019-05-09T16:45:55.152Z,93702.63
2019-05-09T16:49:47.630Z,93712.45
2019-05-09T16:53:49.535Z,93712.40
2019-05-09T16:57:20.982Z,93709.47
2019-05-09T17:01:33.572Z,93722.11
2019-05-09T17:05:17.349Z,93732.38
2019-05-09T17:08:53.585Z,93735.87
2019-05-09T17:13:02.191Z,93746.83
2019-05-09T17:26:37.992Z,93760.33
2019-05-09T17:30:31.275Z,93776.73
2019-05-09T17:52:28.488Z,93806.69
2019-05-09T17:56:37.990Z,93807.00
2019-05-09T18:00:23.343Z,93822.38
2019-05-09T18:03:39.019Z,93813.79
2019-05-09T18:12:19.018Z,93836.94
2019-05-09T18:15:41.863Z,93842.34
2019-05-09T18:19:03.096Z,93852.56
2019-05-09T18:22:37.248Z,93852.03
2019-05-09T18:25:49.425Z,93858.66
2019-05-09T18:29:01.150Z,93859.95
2019-05-09T18:32:24.569Z,93872.76
2019-05-09T18:35:34.008Z,93878.81
2019-05-09T18:38:41.670Z,93877.63
2019-05-09T18:49:49.825Z,93894.88
2019-05-09T18:53:10.735Z,93908.63
2019-05-09T18:56:32.008Z,93915.48
2019-05-09T18:59:39.980Z,93916.97
2019-05-09T19:02:50.873Z,93923.88
2019-05-09T19:05:59.163Z,93931.89
2019-05-09T19:09:06.840Z,93933.36
2019-05-09T19:12:15.333Z,93935.97
2019-05-09T19:15:45.557Z,93940.05
2019-05-09T19:19:02.199Z,93946.16
2019-05-09T19:22:21.989Z,93945.02
2019-05-09T19:25:20.335Z,93955.84
2019-05-09T19:28:28.267Z,93954.23
2019-05-09T19:31:36.730Z,93965.30
2019-05-09T19:34:44.538Z,93965.07
2019-05-09T19:37:52.252Z,93967.40
2019-05-09T19:41:00.191Z,93973.03
2019-05-09T19:44:08.550Z,93985.10
2019-05-09T19:47:19.037Z,93989.00
2019-05-09T19:50:26.707Z,93996.25
2019-05-09T19:53:35.186Z,93993.47
2019-05-09T19:56:42.995Z,94003.64
2019-05-09T19:59:50.607Z,94001.89
2019-05-09T20:02:58.060Z,93998.31
2019-05-09T20:06:07.025Z,94007.25
2019-05-09T20:09:27.972Z,94016.88
2019-05-09T20:12:47.402Z,94018.27
2019-05-09T20:15:55.299Z,94018.52
2019-05-09T20:19:03.385Z,94021.16
2019-05-09T20:22:31.187Z,94022.63
2019-05-09T20:25:39.429Z,94025.22
2019-05-09T20:28:48.652Z,94031.41
2019-05-09T20:31:56.731Z,94039.22
2019-05-09T20:35:05.690Z,94049.16
2019-05-09T20:38:13.753Z,94047.41
2019-05-09T20:41:21.987Z,94047.72
2019-05-09T20:44:30.091Z,94057.95
2019-05-09T20:47:37.980Z,94060.45
2019-05-09T20:50:45.856Z,94061.98
2019-05-09T20:53:54.617Z,94064.97
2019-05-09T20:57:02.378Z,94077.28
2019-05-09T21:00:10.348Z,94076.30
2019-05-09T21:03:18.640Z,94075.22
2019-05-09T21:06:26.754Z,94069.52
2019-05-09T21:09:35.924Z,94073.89
2019-05-09T21:12:43.714Z,94078.55
2019-05-09T21:15:51.321Z,94084.81
2019-05-09T21:18:59.139Z,94094.05
2019-05-09T21:22:06.530Z,94091.91
2019-05-09T21:25:14.264Z,94099.47
2019-05-09T21:28:21.908Z,94096.95
2019-05-09T21:31:29.859Z,94102.19
2019-05-09T21:34:38.033Z,94118.49
2019-05-09T21:37:45.937Z,94109.59
2019-05-09T21:40:53.589Z,94107.21
2019-05-09T21:44:01.567Z,94114.88
2019-05-09T21:47:08.947Z,94111.72
2019-05-09T21:50:16.702Z,94118.49
2019-05-09T21:53:39.545Z,94115.09
2019-05-09T21:56:33.363Z,94124.58
2019-05-09T21:59:41.118Z,94125.64
2019-05-09T22:02:48.590Z,94123.97
2019-05-09T22:05:55.901Z,94133.88
2019-05-09T22:09:07.359Z,94133.32
2019-05-09T22:12:14.855Z,94133.95
2019-05-09T22:15:23.058Z,94129.28
2019-05-09T22:18:30.563Z,94140.97
2019-05-09T22:21:38.213Z,94151.38
2019-05-09T22:24:45.812Z,94152.20
2019-05-09T22:27:55.149Z,94142.30
2019-05-09T22:31:02.887Z,94145.37
2019-05-09T22:34:10.267Z,94150.95
2019-05-09T22:37:17.939Z,94158.91
2019-05-09T22:40:25.483Z,94152.27
2019-05-09T22:43:32.777Z,94166.04
2019-05-09T22:46:40.616Z,94169.75
2019-05-09T22:49:52.191Z,94164.22
2019-05-09T22:52:57.618Z,94162.59
2019-05-09T22:56:05.066Z,94163.50
2019-05-09T22:59:12.813Z,94168.92
2019-05-09T23:02:20.615Z,94161.30
2019-05-09T23:05:27.791Z,94165.91
2019-05-09T23:08:35.506Z,94170.04
2019-05-09T23:11:42.891Z,94170.47
2019-05-09T23:14:50.183Z,94170.87
2019-05-09T23:17:57.581Z,94177.35
2019-05-09T23:21:04.749Z,94176.36
2019-05-09T23:24:27.621Z,94180.50
2019-05-09T23:27:23.853Z,94180.58
2019-05-09T23:30:31.022Z,94188.02
2019-05-09T23:33:39.900Z,94180.73
2019-05-09T23:36:47.507Z,94186.39
2019-05-09T23:39:54.815Z,94193.59
2019-05-09T23:43:02.008Z,94189.79
2019-05-09T23:46:09.163Z,94190.06
2019-05-09T23:49:16.568Z,94192.41
2019-05-09T23:52:24.244Z,94198.83
2019-05-09T23:55:51.656Z,94193.70
2019-05-09T23:59:17.428Z,94197.23
